sensor_id;sensor_type;location;lat;lon;timestamp;P1;durP1;ratioP1;P2;durP2;ratioP2
3589;SDS011;1809;48.470;9.226;2022-10-18T00:00:55;6.07;;;4.17;;
3589;SDS011;1809;48.470;9.226;2022-10-18T00:03:21;4.53;;;3.60;;
3589;SDS011;1809;48.470;9.226;2022-10-18T00:05:47;7.37;;;4.43;;
3589;SDS011;1809;48.470;9.226;2022-10-18T00:08:14;14.70;;;4.83;;
3589;SDS011;1809;48.470;9.226;2022-10-18T00:10:40;8.20;;;5.37;;
3589;SDS011;1809;48.470;9.226;2022-10-18T00:13:06;10.00;;;4.97;;
3589;SDS011;1809;48.470;9.226;2022-10-18T00:15:32;5.80;;;4.20;;
3589;SDS011;1809;48.470;9.226;2022-10-18T00:17:58;16.13;;;5.17;;
3589;SDS011;1809;48.470;9.226;2022-10-18T00:20:23;10.77;;;4.70;;
3589;SDS011;1809;48.470;9.226;2022-10-18T00:22:48;8.10;;;4.57;;
3589;SDS011;1809;48.470;9.226;2022-10-18T00:25:14;7.27;;;4.10;;
3589;SDS011;1809;48.470;9.226;2022-10-18T00:27:39;6.30;;;4.70;;
3589;SDS011;1809;48.470;9.226;2022-10-18T00:30:05;14.53;;;4.97;;
3589;SDS011;1809;48.470;9.226;2022-10-18T00:32:34;4.20;;;3.80;;
3589;SDS011;1809;48.470;9.226;2022-10-18T00:35:04;11.33;;;4.97;;
3589;SDS011;1809;48.470;9.226;2022-10-18T00:37:30;8.53;;;4.60;;
3589;SDS011;1809;48.470;9.226;2022-10-18T00:39:56;5.13;;;4.63;;
3589;SDS011;1809;48.470;9.226;2022-10-18T00:42:28;14.53;;;5.10;;
3589;SDS011;1809;48.470;9.226;2022-10-18T00:44:58;7.00;;;4.10;;
3589;SDS011;1809;48.470;9.226;2022-10-18T00:47:36;8.73;;;4.90;;
3589;SDS011;1809;48.470;9.226;2022-10-18T00:50:02;12.30;;;5.40;;
3589;SDS011;1809;48.470;9.226;2022-10-18T00:52:34;5.80;;;4.70;;
3589;SDS011;1809;48.470;9.226;2022-10-18T00:55:03;4.93;;;4.33;;
3589;SDS011;1809;48.470;9.226;2022-10-18T00:57:30;5.73;;;5.10;;
3589;SDS011;1809;48.470;9.226;2022-10-18T00:59:56;7.13;;;4.87;;
3589;SDS011;1809;48.470;9.226;2022-10-18T01:02:22;6.97;;;4.77;;
3589;SDS011;1809;48.470;9.226;2022-10-18T01:04:48;12.40;;;7.03;;
3589;SDS011;1809;48.470;9.226;2022-10-18T01:10:10;9.20;;;5.67;;
3589;SDS011;1809;48.470;9.226;2022-10-18T01:15:29;7.83;;;4.90;;
3589;SDS011;1809;48.470;9.226;2022-10-18T01:34:14;10.37;;;3.50;;
3589;SDS011;1809;48.470;9.226;2022-10-18T01:37:00;9.60;;;4.47;;
3589;SDS011;1809;48.470;9.226;2022-10-18T01:39:30;11.13;;;3.80;;
3589;SDS011;1809;48.470;9.226;2022-10-18T01:41:58;3.77;;;2.70;;
3589;SDS011;1809;48.470;9.226;2022-10-18T01:44:28;5.53;;;2.90;;
3589;SDS011;1809;48.470;9.226;2022-10-18T01:46:56;3.70;;;2.77;;
3589;SDS011;1809;48.470;9.226;2022-10-18T01:49:24;4.77;;;3.20;;
3589;SDS011;1809;48.470;9.226;2022-10-18T01:51:50;13.67;;;4.23;;
3589;SDS011;1809;48.470;9.226;2022-10-18T01:54:23;3.70;;;3.50;;
3589;SDS011;1809;48.470;9.226;2022-10-18T02:02:48;5.93;;;5.03;;
3589;SDS011;1809;48.470;9.226;2022-10-18T02:05:48;8.67;;;3.77;;
3589;SDS011;1809;48.470;9.226;2022-10-18T02:08:38;6.00;;;3.37;;
3589;SDS011;1809;48.470;9.226;2022-10-18T02:11:12;8.23;;;4.40;;
3589;SDS011;1809;48.470;9.226;2022-10-18T02:13:40;7.80;;;4.80;;
3589;SDS011;1809;48.470;9.226;2022-10-18T02:16:13;3.90;;;3.60;;
3589;SDS011;1809;48.470;9.226;2022-10-18T02:18:47;6.57;;;3.23;;
3589;SDS011;1809;48.470;9.226;2022-10-18T02:21:20;7.47;;;3.93;;
3589;SDS011;1809;48.470;9.226;2022-10-18T02:23:48;7.50;;;3.10;;
3589;SDS011;1809;48.470;9.226;2022-10-18T02:26:14;4.50;;;2.70;;
3589;SDS011;1809;48.470;9.226;2022-10-18T02:28:40;4.80;;;4.40;;
3589;SDS011;1809;48.470;9.226;2022-10-18T02:31:13;4.93;;;3.23;;
3589;SDS011;1809;48.470;9.226;2022-10-18T02:33:45;7.53;;;3.40;;
3589;SDS011;1809;48.470;9.226;2022-10-18T02:36:18;9.17;;;4.13;;
3589;SDS011;1809;48.470;9.226;2022-10-18T02:38:51;5.47;;;4.10;;
3589;SDS011;1809;48.470;9.226;2022-10-18T02:41:24;3.97;;;3.50;;
3589;SDS011;1809;48.470;9.226;2022-10-18T02:43:51;3.60;;;3.30;;
3589;SDS011;1809;48.470;9.226;2022-10-18T02:46:16;4.30;;;3.10;;
3589;SDS011;1809;48.470;9.226;2022-10-18T02:48:42;3.13;;;2.83;;
3589;SDS011;1809;48.470;9.226;2022-10-18T02:51:07;5.30;;;3.83;;
3589;SDS011;1809;48.470;9.226;2022-10-18T02:53:35;18.33;;;5.40;;
3589;SDS011;1809;48.470;9.226;2022-10-18T02:56:01;22.30;;;4.83;;
3589;SDS011;1809;48.470;9.226;2022-10-18T02:58:27;43.40;;;5.50;;
3589;SDS011;1809;48.470;9.226;2022-10-18T03:00:52;11.20;;;4.23;;
3589;SDS011;1809;48.470;9.226;2022-10-18T03:03:18;16.10;;;4.20;;
3589;SDS011;1809;48.470;9.226;2022-10-18T03:05:43;8.87;;;4.83;;
3589;SDS011;1809;48.470;9.226;2022-10-18T03:08:08;12.40;;;4.00;;
3589;SDS011;1809;48.470;9.226;2022-10-18T03:10:34;5.00;;;4.60;;
3589;SDS011;1809;48.470;9.226;2022-10-18T03:12:59;11.20;;;4.07;;
3589;SDS011;1809;48.470;9.226;2022-10-18T03:15:24;11.77;;;5.10;;
3589;SDS011;1809;48.470;9.226;2022-10-18T03:17:50;13.30;;;5.37;;
3589;SDS011;1809;48.470;9.226;2022-10-18T03:20:15;13.13;;;4.87;;
3589;SDS011;1809;48.470;9.226;2022-10-18T03:22:40;12.73;;;4.87;;
3589;SDS011;1809;48.470;9.226;2022-10-18T03:25:06;11.23;;;4.43;;
3589;SDS011;1809;48.470;9.226;2022-10-18T03:27:31;15.70;;;4.97;;
3589;SDS011;1809;48.470;9.226;2022-10-18T03:29:57;7.50;;;4.60;;
3589;SDS011;1809;48.470;9.226;2022-10-18T03:32:23;4.23;;;3.93;;
3589;SDS011;1809;48.470;9.226;2022-10-18T03:34:48;12.53;;;4.43;;
3589;SDS011;1809;48.470;9.226;2022-10-18T03:37:14;4.83;;;4.43;;
3589;SDS011;1809;48.470;9.226;2022-10-18T03:39:40;7.30;;;4.53;;
3589;SDS011;1809;48.470;9.226;2022-10-18T03:42:05;6.97;;;3.83;;
3589;SDS011;1809;48.470;9.226;2022-10-18T03:44:30;5.40;;;4.90;;
3589;SDS011;1809;48.470;9.226;2022-10-18T03:46:56;6.00;;;4.00;;
3589;SDS011;1809;48.470;9.226;2022-10-18T03:49:21;10.40;;;4.80;;
3589;SDS011;1809;48.470;9.226;2022-10-18T03:51:46;7.47;;;4.83;;
3589;SDS011;1809;48.470;9.226;2022-10-18T03:54:12;4.63;;;4.33;;
3589;SDS011;1809;48.470;9.226;2022-10-18T03:56:37;6.70;;;4.73;;
3589;SDS011;1809;48.470;9.226;2022-10-18T03:59:02;6.97;;;4.40;;
3589;SDS011;1809;48.470;9.226;2022-10-18T04:01:28;6.70;;;4.40;;
3589;SDS011;1809;48.470;9.226;2022-10-18T04:03:54;5.13;;;4.37;;
3589;SDS011;1809;48.470;9.226;2022-10-18T04:06:19;11.40;;;4.53;;
3589;SDS011;1809;48.470;9.226;2022-10-18T04:08:45;8.93;;;4.87;;
3589;SDS011;1809;48.470;9.226;2022-10-18T04:11:10;8.93;;;5.30;;
3589;SDS011;1809;48.470;9.226;2022-10-18T04:13:36;8.90;;;5.10;;
3589;SDS011;1809;48.470;9.226;2022-10-18T04:16:02;9.80;;;4.10;;
3589;SDS011;1809;48.470;9.226;2022-10-18T04:18:27;12.10;;;4.17;;
3589;SDS011;1809;48.470;9.226;2022-10-18T04:20:53;11.10;;;3.97;;
3589;SDS011;1809;48.470;9.226;2022-10-18T04:23:18;3.80;;;3.40;;
3589;SDS011;1809;48.470;9.226;2022-10-18T04:25:43;8.40;;;4.27;;
3589;SDS011;1809;48.470;9.226;2022-10-18T04:28:09;6.60;;;4.23;;
3589;SDS011;1809;48.470;9.226;2022-10-18T04:30:34;12.57;;;4.43;;
3589;SDS011;1809;48.470;9.226;2022-10-18T04:32:59;8.70;;;4.30;;
3589;SDS011;1809;48.470;9.226;2022-10-18T04:35:25;8.80;;;4.40;;
3589;SDS011;1809;48.470;9.226;2022-10-18T04:37:52;5.70;;;4.03;;
3589;SDS011;1809;48.470;9.226;2022-10-18T04:40:18;11.87;;;4.03;;
3589;SDS011;1809;48.470;9.226;2022-10-18T04:42:44;5.43;;;3.07;;
3589;SDS011;1809;48.470;9.226;2022-10-18T04:45:10;3.93;;;3.53;;
3589;SDS011;1809;48.470;9.226;2022-10-18T04:47:35;6.77;;;2.87;;
3589;SDS011;1809;48.470;9.226;2022-10-18T04:50:01;6.43;;;4.50;;
3589;SDS011;1809;48.470;9.226;2022-10-18T04:52:26;9.60;;;4.43;;
3589;SDS011;1809;48.470;9.226;2022-10-18T04:54:52;3.63;;;3.33;;
3589;SDS011;1809;48.470;9.226;2022-10-18T04:57:17;3.63;;;3.23;;
3589;SDS011;1809;48.470;9.226;2022-10-18T04:59:42;4.03;;;3.63;;
3589;SDS011;1809;48.470;9.226;2022-10-18T05:02:08;8.30;;;4.13;;
3589;SDS011;1809;48.470;9.226;2022-10-18T05:04:33;5.90;;;4.40;;
3589;SDS011;1809;48.470;9.226;2022-10-18T05:06:59;11.40;;;4.70;;
3589;SDS011;1809;48.470;9.226;2022-10-18T05:09:25;15.17;;;4.47;;
3589;SDS011;1809;48.470;9.226;2022-10-18T05:11:50;5.57;;;4.13;;
3589;SDS011;1809;48.470;9.226;2022-10-18T05:14:15;7.13;;;3.87;;
3589;SDS011;1809;48.470;9.226;2022-10-18T05:16:41;11.43;;;4.33;;
3589;SDS011;1809;48.470;9.226;2022-10-18T05:19:06;11.77;;;3.83;;
3589;SDS011;1809;48.470;9.226;2022-10-18T05:21:32;5.60;;;4.43;;
3589;SDS011;1809;48.470;9.226;2022-10-18T05:23:57;4.73;;;4.33;;
3589;SDS011;1809;48.470;9.226;2022-10-18T05:26:23;5.37;;;4.57;;
3589;SDS011;1809;48.470;9.226;2022-10-18T05:28:48;8.80;;;5.50;;
3589;SDS011;1809;48.470;9.226;2022-10-18T05:31:14;10.40;;;4.27;;
3589;SDS011;1809;48.470;9.226;2022-10-18T05:33:40;23.00;;;4.63;;
3589;SDS011;1809;48.470;9.226;2022-10-18T05:36:05;6.33;;;5.50;;
3589;SDS011;1809;48.470;9.226;2022-10-18T05:38:31;14.60;;;5.20;;
3589;SDS011;1809;48.470;9.226;2022-10-18T05:40:57;10.03;;;5.30;;
3589;SDS011;1809;48.470;9.226;2022-10-18T05:43:22;11.37;;;4.93;;
3589;SDS011;1809;48.470;9.226;2022-10-18T05:45:51;16.83;;;5.77;;
3589;SDS011;1809;48.470;9.226;2022-10-18T05:48:17;7.83;;;5.87;;
3589;SDS011;1809;48.470;9.226;2022-10-18T05:50:42;13.07;;;6.73;;
3589;SDS011;1809;48.470;9.226;2022-10-18T05:53:08;13.90;;;5.53;;
3589;SDS011;1809;48.470;9.226;2022-10-18T05:55:34;10.50;;;5.83;;
3589;SDS011;1809;48.470;9.226;2022-10-18T05:57:59;9.50;;;5.70;;
3589;SDS011;1809;48.470;9.226;2022-10-18T06:00:24;8.67;;;5.50;;
3589;SDS011;1809;48.470;9.226;2022-10-18T06:02:50;9.23;;;5.63;;
3589;SDS011;1809;48.470;9.226;2022-10-18T06:05:15;9.73;;;4.77;;
3589;SDS011;1809;48.470;9.226;2022-10-18T06:07:40;10.20;;;5.30;;
3589;SDS011;1809;48.470;9.226;2022-10-18T06:10:06;6.83;;;5.23;;
3589;SDS011;1809;48.470;9.226;2022-10-18T06:12:31;12.57;;;8.30;;
3589;SDS011;1809;48.470;9.226;2022-10-18T06:14:57;16.23;;;8.20;;
3589;SDS011;1809;48.470;9.226;2022-10-18T06:17:22;30.37;;;9.50;;
3589;SDS011;1809;48.470;9.226;2022-10-18T06:19:47;16.03;;;8.60;;
3589;SDS011;1809;48.470;9.226;2022-10-18T06:22:13;13.73;;;8.83;;
3589;SDS011;1809;48.470;9.226;2022-10-18T06:24:38;13.30;;;8.13;;
3589;SDS011;1809;48.470;9.226;2022-10-18T06:27:03;14.60;;;7.83;;
3589;SDS011;1809;48.470;9.226;2022-10-18T06:29:35;9.73;;;7.13;;
3589;SDS011;1809;48.470;9.226;2022-10-18T06:32:01;11.27;;;7.57;;
3589;SDS011;1809;48.470;9.226;2022-10-18T06:34:28;11.23;;;5.20;;
3589;SDS011;1809;48.470;9.226;2022-10-18T06:36:53;13.37;;;5.30;;
3589;SDS011;1809;48.470;9.226;2022-10-18T06:39:18;11.30;;;5.00;;
3589;SDS011;1809;48.470;9.226;2022-10-18T06:41:43;7.80;;;4.77;;
3589;SDS011;1809;48.470;9.226;2022-10-18T06:44:09;8.00;;;4.93;;
3589;SDS011;1809;48.470;9.226;2022-10-18T06:46:42;13.00;;;4.83;;
3589;SDS011;1809;48.470;9.226;2022-10-18T06:49:10;15.37;;;4.60;;
3589;SDS011;1809;48.470;9.226;2022-10-18T06:51:36;11.07;;;3.90;;
3589;SDS011;1809;48.470;9.226;2022-10-18T06:54:01;8.67;;;4.17;;
3589;SDS011;1809;48.470;9.226;2022-10-18T06:56:30;12.77;;;5.33;;
3589;SDS011;1809;48.470;9.226;2022-10-18T06:58:56;13.83;;;4.60;;
3589;SDS011;1809;48.470;9.226;2022-10-18T07:01:22;7.13;;;3.57;;
3589;SDS011;1809;48.470;9.226;2022-10-18T07:03:48;6.47;;;3.57;;
3589;SDS011;1809;48.470;9.226;2022-10-18T07:06:18;12.63;;;3.80;;
3589;SDS011;1809;48.470;9.226;2022-10-18T07:08:45;8.07;;;4.20;;
3589;SDS011;1809;48.470;9.226;2022-10-18T07:11:16;6.33;;;3.90;;
3589;SDS011;1809;48.470;9.226;2022-10-18T07:13:53;8.27;;;5.70;;
3589;SDS011;1809;48.470;9.226;2022-10-18T07:16:30;8.93;;;5.00;;
3589;SDS011;1809;48.470;9.226;2022-10-18T07:18:56;5.73;;;4.50;;
3589;SDS011;1809;48.470;9.226;2022-10-18T07:21:23;12.47;;;4.70;;
3589;SDS011;1809;48.470;9.226;2022-10-18T07:23:50;7.87;;;5.00;;
3589;SDS011;1809;48.470;9.226;2022-10-18T07:26:29;5.07;;;4.33;;
3589;SDS011;1809;48.470;9.226;2022-10-18T07:28:59;8.50;;;4.73;;
3589;SDS011;1809;48.470;9.226;2022-10-18T07:31:29;9.07;;;3.77;;
3589;SDS011;1809;48.470;9.226;2022-10-18T07:33:55;10.60;;;3.90;;
3589;SDS011;1809;48.470;9.226;2022-10-18T07:36:21;5.57;;;4.13;;
3589;SDS011;1809;48.470;9.226;2022-10-18T07:38:49;17.00;;;4.93;;
3589;SDS011;1809;48.470;9.226;2022-10-18T07:41:16;7.87;;;4.00;;
3589;SDS011;1809;48.470;9.226;2022-10-18T07:43:49;10.80;;;4.73;;
3589;SDS011;1809;48.470;9.226;2022-10-18T07:46:18;6.70;;;4.57;;
3589;SDS011;1809;48.470;9.226;2022-10-18T07:48:45;16.23;;;4.40;;
3589;SDS011;1809;48.470;9.226;2022-10-18T07:51:14;7.03;;;4.37;;
3589;SDS011;1809;48.470;9.226;2022-10-18T07:53:40;8.53;;;5.30;;
3589;SDS011;1809;48.470;9.226;2022-10-18T07:56:08;8.03;;;4.77;;
3589;SDS011;1809;48.470;9.226;2022-10-18T07:58:40;5.37;;;3.80;;
3589;SDS011;1809;48.470;9.226;2022-10-18T08:01:08;8.43;;;4.60;;
3589;SDS011;1809;48.470;9.226;2022-10-18T08:03:35;8.67;;;4.70;;
3589;SDS011;1809;48.470;9.226;2022-10-18T08:06:02;3.80;;;3.40;;
3589;SDS011;1809;48.470;9.226;2022-10-18T08:08:29;4.30;;;3.90;;
3589;SDS011;1809;48.470;9.226;2022-10-18T08:10:55;11.53;;;4.40;;
3589;SDS011;1809;48.470;9.226;2022-10-18T08:13:26;6.07;;;3.73;;
3589;SDS011;1809;48.470;9.226;2022-10-18T08:15:57;6.40;;;3.80;;
3589;SDS011;1809;48.470;9.226;2022-10-18T08:18:27;6.93;;;4.13;;
3589;SDS011;1809;48.470;9.226;2022-10-18T08:20:53;16.20;;;5.10;;
3589;SDS011;1809;48.470;9.226;2022-10-18T08:23:19;17.70;;;4.30;;
3589;SDS011;1809;48.470;9.226;2022-10-18T08:25:50;19.47;;;5.60;;
3589;SDS011;1809;48.470;9.226;2022-10-18T08:28:19;5.40;;;4.50;;
3589;SDS011;1809;48.470;9.226;2022-10-18T08:30:45;10.13;;;4.80;;
3589;SDS011;1809;48.470;9.226;2022-10-18T08:33:16;8.67;;;5.03;;
3589;SDS011;1809;48.470;9.226;2022-10-18T08:35:42;11.83;;;4.73;;
3589;SDS011;1809;48.470;9.226;2022-10-18T08:38:08;6.30;;;5.27;;
3589;SDS011;1809;48.470;9.226;2022-10-18T08:40:41;18.67;;;5.60;;
3589;SDS011;1809;48.470;9.226;2022-10-18T08:46:10;18.07;;;6.43;;
3589;SDS011;1809;48.470;9.226;2022-10-18T08:48:41;22.83;;;7.23;;
3589;SDS011;1809;48.470;9.226;2022-10-18T08:51:32;10.00;;;6.43;;
3589;SDS011;1809;48.470;9.226;2022-10-18T08:56:37;18.10;;;5.40;;
3589;SDS011;1809;48.470;9.226;2022-10-18T08:59:09;12.03;;;5.40;;
3589;SDS011;1809;48.470;9.226;2022-10-18T09:04:53;12.30;;;4.60;;
3589;SDS011;1809;48.470;9.226;2022-10-18T09:07:51;15.80;;;4.77;;
3589;SDS011;1809;48.470;9.226;2022-10-18T09:13:26;19.90;;;5.70;;
3589;SDS011;1809;48.470;9.226;2022-10-18T09:19:23;9.10;;;4.70;;
3589;SDS011;1809;48.470;9.226;2022-10-18T09:22:13;8.13;;;4.73;;
3589;SDS011;1809;48.470;9.226;2022-10-18T09:27:31;15.20;;;4.90;;
3589;SDS011;1809;48.470;9.226;2022-10-18T09:30:32;7.00;;;4.30;;
3589;SDS011;1809;48.470;9.226;2022-10-18T09:33:15;8.33;;;4.40;;
3589;SDS011;1809;48.470;9.226;2022-10-18T09:35:55;9.90;;;4.40;;
3589;SDS011;1809;48.470;9.226;2022-10-18T09:38:24;8.77;;;3.77;;
3589;SDS011;1809;48.470;9.226;2022-10-18T09:41:01;6.90;;;5.27;;
3589;SDS011;1809;48.470;9.226;2022-10-18T09:43:40;9.43;;;4.90;;
3589;SDS011;1809;48.470;9.226;2022-10-18T09:46:20;6.80;;;4.37;;
3589;SDS011;1809;48.470;9.226;2022-10-18T09:48:53;8.67;;;5.80;;
3589;SDS011;1809;48.470;9.226;2022-10-18T09:51:28;7.63;;;4.97;;
3589;SDS011;1809;48.470;9.226;2022-10-18T09:56:29;11.07;;;4.60;;
3589;SDS011;1809;48.470;9.226;2022-10-18T09:59:26;13.77;;;4.97;;
3589;SDS011;1809;48.470;9.226;2022-10-18T10:02:16;11.80;;;5.83;;
3589;SDS011;1809;48.470;9.226;2022-10-18T10:04:46;12.03;;;4.90;;
3589;SDS011;1809;48.470;9.226;2022-10-18T10:07:13;9.97;;;5.70;;
3589;SDS011;1809;48.470;9.226;2022-10-18T10:09:56;7.70;;;6.20;;
3589;SDS011;1809;48.470;9.226;2022-10-18T10:12:33;10.00;;;5.63;;
3589;SDS011;1809;48.470;9.226;2022-10-18T10:17:56;9.43;;;5.60;;
3589;SDS011;1809;48.470;9.226;2022-10-18T10:20:40;16.23;;;4.87;;
3589;SDS011;1809;48.470;9.226;2022-10-18T10:23:12;16.87;;;5.40;;
3589;SDS011;1809;48.470;9.226;2022-10-18T10:25:44;6.77;;;4.60;;
3589;SDS011;1809;48.470;9.226;2022-10-18T10:28:22;6.03;;;4.60;;
3589;SDS011;1809;48.470;9.226;2022-10-18T10:30:52;17.80;;;5.77;;
3589;SDS011;1809;48.470;9.226;2022-10-18T10:36:31;6.97;;;5.10;;
3589;SDS011;1809;48.470;9.226;2022-10-18T10:39:02;14.70;;;5.80;;
3589;SDS011;1809;48.470;9.226;2022-10-18T10:41:29;8.10;;;4.80;;
3589;SDS011;1809;48.470;9.226;2022-10-18T10:43:55;7.63;;;4.80;;
3589;SDS011;1809;48.470;9.226;2022-10-18T10:46:21;12.27;;;5.33;;
3589;SDS011;1809;48.470;9.226;2022-10-18T10:48:51;10.63;;;5.87;;
3589;SDS011;1809;48.470;9.226;2022-10-18T10:51:30;7.03;;;5.60;;
3589;SDS011;1809;48.470;9.226;2022-10-18T10:56:32;8.17;;;5.63;;
3589;SDS011;1809;48.470;9.226;2022-10-18T10:59:14;8.57;;;6.17;;
3589;SDS011;1809;48.470;9.226;2022-10-18T11:01:48;9.33;;;5.43;;
3589;SDS011;1809;48.470;9.226;2022-10-18T11:04:36;16.33;;;6.40;;
3589;SDS011;1809;48.470;9.226;2022-10-18T11:10:13;6.63;;;4.97;;
3589;SDS011;1809;48.470;9.226;2022-10-18T11:12:43;16.37;;;5.30;;
3589;SDS011;1809;48.470;9.226;2022-10-18T11:18:31;12.80;;;5.13;;
3589;SDS011;1809;48.470;9.226;2022-10-18T11:23:49;9.33;;;4.70;;
3589;SDS011;1809;48.470;9.226;2022-10-18T11:43:10;8.30;;;3.70;;
3589;SDS011;1809;48.470;9.226;2022-10-18T11:52:07;5.63;;;3.43;;
3589;SDS011;1809;48.470;9.226;2022-10-18T11:57:45;6.80;;;3.80;;
3589;SDS011;1809;48.470;9.226;2022-10-18T12:05:45;3.70;;;2.77;;
3589;SDS011;1809;48.470;9.226;2022-10-18T12:08:14;9.73;;;4.60;;
3589;SDS011;1809;48.470;9.226;2022-10-18T12:10:43;8.90;;;3.33;;
3589;SDS011;1809;48.470;9.226;2022-10-18T12:13:18;3.90;;;3.30;;
3589;SDS011;1809;48.470;9.226;2022-10-18T12:15:49;4.10;;;3.03;;
3589;SDS011;1809;48.470;9.226;2022-10-18T12:18:16;3.47;;;3.17;;
3589;SDS011;1809;48.470;9.226;2022-10-18T12:20:45;9.10;;;3.40;;
3589;SDS011;1809;48.470;9.226;2022-10-18T12:25:45;4.83;;;3.43;;
3589;SDS011;1809;48.470;9.226;2022-10-18T12:31:20;3.87;;;3.40;;
3589;SDS011;1809;48.470;9.226;2022-10-18T12:34:22;3.53;;;3.17;;
3589;SDS011;1809;48.470;9.226;2022-10-18T12:40:37;3.77;;;2.77;;
3589;SDS011;1809;48.470;9.226;2022-10-18T12:42:33;3.97;;;3.67;;
3589;SDS011;1809;48.470;9.226;2022-10-18T12:47:37;5.03;;;4.20;;
3589;SDS011;1809;48.470;9.226;2022-10-18T12:50:05;9.43;;;3.90;;
3589;SDS011;1809;48.470;9.226;2022-10-18T12:52:55;4.07;;;3.67;;
3589;SDS011;1809;48.470;9.226;2022-10-18T12:55:28;4.03;;;2.70;;
3589;SDS011;1809;48.470;9.226;2022-10-18T13:08:56;3.33;;;2.07;;
3589;SDS011;1809;48.470;9.226;2022-10-18T13:22:14;4.40;;;3.17;;
3589;SDS011;1809;48.470;9.226;2022-10-18T13:25:03;7.17;;;2.27;;
3589;SDS011;1809;48.470;9.226;2022-10-18T13:27:41;4.40;;;2.70;;
3589;SDS011;1809;48.470;9.226;2022-10-18T13:35:40;6.83;;;2.20;;
3589;SDS011;1809;48.470;9.226;2022-10-18T13:38:31;2.63;;;2.27;;
3589;SDS011;1809;48.470;9.226;2022-10-18T13:46:20;1.67;;;1.57;;
3589;SDS011;1809;48.470;9.226;2022-10-18T13:48:48;11.97;;;2.17;;
3589;SDS011;1809;48.470;9.226;2022-10-18T14:02:44;3.70;;;3.40;;
3589;SDS011;1809;48.470;9.226;2022-10-18T14:08:14;7.43;;;3.80;;
3589;SDS011;1809;48.470;9.226;2022-10-18T14:13:24;6.77;;;3.70;;
3589;SDS011;1809;48.470;9.226;2022-10-18T14:15:56;6.47;;;3.53;;
3589;SDS011;1809;48.470;9.226;2022-10-18T14:18:31;8.57;;;4.10;;
3589;SDS011;1809;48.470;9.226;2022-10-18T14:21:01;7.33;;;3.80;;
3589;SDS011;1809;48.470;9.226;2022-10-18T14:23:34;4.10;;;3.57;;
3589;SDS011;1809;48.470;9.226;2022-10-18T14:26:14;10.70;;;4.30;;
3589;SDS011;1809;48.470;9.226;2022-10-18T14:28:42;12.67;;;4.40;;
3589;SDS011;1809;48.470;9.226;2022-10-18T14:31:14;9.13;;;4.23;;
3589;SDS011;1809;48.470;9.226;2022-10-18T14:38:50;5.60;;;3.73;;
3589;SDS011;1809;48.470;9.226;2022-10-18T14:41:38;7.97;;;5.33;;
3589;SDS011;1809;48.470;9.226;2022-10-18T14:44:19;6.83;;;3.50;;
3589;SDS011;1809;48.470;9.226;2022-10-18T14:46:50;4.73;;;4.20;;
3589;SDS011;1809;48.470;9.226;2022-10-18T14:49:22;6.23;;;4.37;;
3589;SDS011;1809;48.470;9.226;2022-10-18T14:51:49;8.00;;;3.80;;
3589;SDS011;1809;48.470;9.226;2022-10-18T14:54:22;6.30;;;3.60;;
3589;SDS011;1809;48.470;9.226;2022-10-18T14:56:49;3.70;;;3.37;;
3589;SDS011;1809;48.470;9.226;2022-10-18T14:59:19;7.93;;;4.93;;
3589;SDS011;1809;48.470;9.226;2022-10-18T15:01:51;8.20;;;5.53;;
3589;SDS011;1809;48.470;9.226;2022-10-18T15:04:20;7.43;;;5.10;;
3589;SDS011;1809;48.470;9.226;2022-10-18T15:06:47;8.73;;;6.30;;
3589;SDS011;1809;48.470;9.226;2022-10-18T15:09:12;10.53;;;5.50;;
3589;SDS011;1809;48.470;9.226;2022-10-18T15:11:44;11.47;;;5.40;;
3589;SDS011;1809;48.470;9.226;2022-10-18T15:14:14;5.30;;;4.90;;
3589;SDS011;1809;48.470;9.226;2022-10-18T15:16:42;9.40;;;4.73;;
3589;SDS011;1809;48.470;9.226;2022-10-18T15:19:27;7.67;;;4.60;;
3589;SDS011;1809;48.470;9.226;2022-10-18T15:29:43;7.77;;;4.70;;
3589;SDS011;1809;48.470;9.226;2022-10-18T15:32:23;7.17;;;4.60;;
3589;SDS011;1809;48.470;9.226;2022-10-18T15:34:51;9.07;;;4.13;;
3589;SDS011;1809;48.470;9.226;2022-10-18T15:37:31;5.30;;;4.30;;
3589;SDS011;1809;48.470;9.226;2022-10-18T15:42:42;6.63;;;4.17;;
3589;SDS011;1809;48.470;9.226;2022-10-18T15:48:12;4.10;;;3.80;;
3589;SDS011;1809;48.470;9.226;2022-10-18T15:50:49;6.90;;;3.63;;
3589;SDS011;1809;48.470;9.226;2022-10-18T15:56:00;7.47;;;4.50;;
3589;SDS011;1809;48.470;9.226;2022-10-18T15:58:38;8.93;;;5.00;;
3589;SDS011;1809;48.470;9.226;2022-10-18T16:01:05;4.83;;;4.43;;
3589;SDS011;1809;48.470;9.226;2022-10-18T16:03:38;7.43;;;4.07;;
3589;SDS011;1809;48.470;9.226;2022-10-18T16:06:05;10.80;;;5.13;;
3589;SDS011;1809;48.470;9.226;2022-10-18T16:08:34;7.90;;;4.43;;
3589;SDS011;1809;48.470;9.226;2022-10-18T16:11:04;7.67;;;5.47;;
3589;SDS011;1809;48.470;9.226;2022-10-18T16:13:31;7.30;;;5.10;;
3589;SDS011;1809;48.470;9.226;2022-10-18T16:15:57;5.40;;;4.90;;
3589;SDS011;1809;48.470;9.226;2022-10-18T16:18:24;7.53;;;5.23;;
3589;SDS011;1809;48.470;9.226;2022-10-18T16:20:50;6.87;;;4.47;;
3589;SDS011;1809;48.470;9.226;2022-10-18T16:23:16;7.00;;;4.23;;
3589;SDS011;1809;48.470;9.226;2022-10-18T16:25:46;4.10;;;3.53;;
3589;SDS011;1809;48.470;9.226;2022-10-18T16:28:13;6.40;;;4.93;;
3589;SDS011;1809;48.470;9.226;2022-10-18T16:30:41;14.30;;;5.50;;
3589;SDS011;1809;48.470;9.226;2022-10-18T16:33:08;13.63;;;5.30;;
3589;SDS011;1809;48.470;9.226;2022-10-18T16:35:34;10.20;;;4.50;;
3589;SDS011;1809;48.470;9.226;2022-10-18T16:38:00;9.20;;;4.73;;
3589;SDS011;1809;48.470;9.226;2022-10-18T16:40:25;7.80;;;3.37;;
3589;SDS011;1809;48.470;9.226;2022-10-18T16:42:51;5.43;;;4.13;;
3589;SDS011;1809;48.470;9.226;2022-10-18T16:45:16;4.90;;;4.33;;
3589;SDS011;1809;48.470;9.226;2022-10-18T16:47:42;4.47;;;4.17;;
3589;SDS011;1809;48.470;9.226;2022-10-18T16:50:16;7.43;;;3.90;;
3589;SDS011;1809;48.470;9.226;2022-10-18T16:52:43;8.63;;;4.13;;
3589;SDS011;1809;48.470;9.226;2022-10-18T16:55:09;3.90;;;3.60;;
3589;SDS011;1809;48.470;9.226;2022-10-18T16:57:41;5.83;;;4.40;;
3589;SDS011;1809;48.470;9.226;2022-10-18T17:00:11;9.10;;;4.43;;
3589;SDS011;1809;48.470;9.226;2022-10-18T17:02:41;7.77;;;4.80;;
3589;SDS011;1809;48.470;9.226;2022-10-18T17:05:06;5.33;;;4.93;;
3589;SDS011;1809;48.470;9.226;2022-10-18T17:07:31;11.83;;;5.90;;
3589;SDS011;1809;48.470;9.226;2022-10-18T17:09:57;5.40;;;5.00;;
3589;SDS011;1809;48.470;9.226;2022-10-18T17:12:22;5.37;;;4.87;;
3589;SDS011;1809;48.470;9.226;2022-10-18T17:14:47;6.33;;;5.63;;
3589;SDS011;1809;48.470;9.226;2022-10-18T17:17:13;5.97;;;5.03;;
3589;SDS011;1809;48.470;9.226;2022-10-18T17:19:38;5.83;;;5.30;;
3589;SDS011;1809;48.470;9.226;2022-10-18T17:22:03;8.03;;;5.97;;
3589;SDS011;1809;48.470;9.226;2022-10-18T17:24:29;7.47;;;5.80;;
3589;SDS011;1809;48.470;9.226;2022-10-18T17:26:54;8.00;;;7.27;;
3589;SDS011;1809;48.470;9.226;2022-10-18T17:29:19;9.93;;;7.23;;
3589;SDS011;1809;48.470;9.226;2022-10-18T17:31:45;19.37;;;5.30;;
3589;SDS011;1809;48.470;9.226;2022-10-18T17:34:10;6.33;;;5.73;;
3589;SDS011;1809;48.470;9.226;2022-10-18T17:36:35;8.43;;;7.53;;
3589;SDS011;1809;48.470;9.226;2022-10-18T17:39:01;13.03;;;8.93;;
3589;SDS011;1809;48.470;9.226;2022-10-18T17:41:27;12.40;;;7.97;;
3589;SDS011;1809;48.470;9.226;2022-10-18T17:43:53;12.50;;;7.00;;
3589;SDS011;1809;48.470;9.226;2022-10-18T17:46:18;7.83;;;6.70;;
3589;SDS011;1809;48.470;9.226;2022-10-18T17:48:44;9.73;;;5.30;;
3589;SDS011;1809;48.470;9.226;2022-10-18T17:51:10;14.83;;;6.50;;
3589;SDS011;1809;48.470;9.226;2022-10-18T17:53:37;12.60;;;6.30;;
3589;SDS011;1809;48.470;9.226;2022-10-18T17:56:03;5.30;;;4.87;;
3589;SDS011;1809;48.470;9.226;2022-10-18T17:58:29;8.47;;;6.17;;
3589;SDS011;1809;48.470;9.226;2022-10-18T18:00:55;5.40;;;5.00;;
3589;SDS011;1809;48.470;9.226;2022-10-18T18:03:20;11.50;;;6.60;;
3589;SDS011;1809;48.470;9.226;2022-10-18T18:05:47;8.40;;;6.23;;
3589;SDS011;1809;48.470;9.226;2022-10-18T18:08:13;8.87;;;6.90;;
3589;SDS011;1809;48.470;9.226;2022-10-18T18:10:38;14.63;;;7.80;;
3589;SDS011;1809;48.470;9.226;2022-10-18T18:13:04;17.00;;;8.17;;
3589;SDS011;1809;48.470;9.226;2022-10-18T18:15:29;8.03;;;7.23;;
3589;SDS011;1809;48.470;9.226;2022-10-18T18:17:55;11.43;;;9.10;;
3589;SDS011;1809;48.470;9.226;2022-10-18T18:20:20;15.30;;;8.83;;
3589;SDS011;1809;48.470;9.226;2022-10-18T18:22:46;19.13;;;7.70;;